Time;durP1;ratioP1;P1;durP2;ratioP2;P2;SDS_P1;SDS_P2;PMS_P1;PMS_P2;Temp;Humidity;BMP_temperature;BMP_pressure;BME280_temperature;BME280_humidity;BME280_pressure;Samples;Min_cycle;Max_cycle;Signal;HPM_P1;HPM_P2
2023/10/28 00:00:17;;;;;;;8.98;3.40;;;15.30;99.90;;;;;;4956820;28;20388;-75
2023/10/28 00:02:43;;;;;;;8.52;3.05;;;15.30;99.90;;;;;;4956982;28;20034;-75
2023/10/28 00:05:09;;;;;;;11.00;3.10;;;15.30;99.90;;;;;;4956804;28;20365;-75
2023/10/28 00:07:35;;;;;;;10.52;2.63;;;15.30;99.90;;;;;;4971837;28;20030;-75
2023/10/28 00:10:02;;;;;;;8.50;2.78;;;15.30;99.90;;;;;;4957080;28;20090;-75
2023/10/28 00:12:28;;;;;;;6.05;2.40;;;15.30;99.90;;;;;;4956662;28;20389;-74
2023/10/28 00:14:54;;;;;;;9.32;3.00;;;15.30;99.90;;;;;;4964619;28;20474;-75
2023/10/28 00:17:19;;;;;;;5.03;2.05;;;15.40;99.90;;;;;;4964692;28;20062;-75
2023/10/28 00:19:46;;;;;;;5.60;1.88;;;15.40;99.90;;;;;;4956346;28;20086;-75
2023/10/28 00:22:12;;;;;;;5.75;2.10;;;15.40;99.90;;;;;;4956459;28;20030;-75
2023/10/28 00:24:41;;;;;;;7.80;2.35;;;15.30;99.90;;;;;;4956665;28;20428;-75
2023/10/28 00:27:08;;;;;;;5.75;1.70;;;15.30;99.90;;;;;;4955529;28;20058;-75
2023/10/28 00:29:33;;;;;;;4.53;1.75;;;15.40;99.90;;;;;;4956568;28;20472;-75
2023/10/28 00:31:59;;;;;;;6.05;2.08;;;15.30;99.90;;;;;;4956609;28;20114;-75
2023/10/28 00:34:24;;;;;;;4.95;1.77;;;15.40;99.90;;;;;;4956497;28;20495;-75
2023/10/28 00:36:50;;;;;;;4.28;1.92;;;15.40;99.90;;;;;;4956602;28;20023;-75
2023/10/28 00:39:16;;;;;;;4.72;1.48;;;15.30;99.90;;;;;;4956359;28;20039;-75
2023/10/28 00:41:42;;;;;;;5.32;2.08;;;15.30;99.90;;;;;;4956359;28;20043;-75
2023/10/28 00:44:08;;;;;;;5.70;1.90;;;15.30;99.90;;;;;;4955299;28;20035;-75
2023/10/28 00:46:33;;;;;;;6.65;1.77;;;15.30;99.90;;;;;;4955606;28;20026;-75
2023/10/28 00:48:59;;;;;;;9.73;1.83;;;15.40;99.90;;;;;;4956110;29;20023;-75
2023/10/28 00:51:25;;;;;;;7.20;1.70;;;15.30;99.90;;;;;;4957902;28;20035;-75
2023/10/28 00:53:51;;;;;;;5.63;1.45;;;15.30;99.90;;;;;;4975309;28;20019;-75
2023/10/28 00:56:18;;;;;;;5.38;2.00;;;15.30;99.90;;;;;;4973143;28;20053;-74
2023/10/28 00:58:46;;;;;;;4.25;1.27;;;15.30;99.90;;;;;;4973755;28;20027;-74
2023/10/28 01:01:13;;;;;;;7.05;1.80;;;15.30;99.90;;;;;;4974851;28;20050;-74
2023/10/28 01:03:40;;;;;;;4.25;1.88;;;15.30;99.90;;;;;;4974736;28;20551;-74
2023/10/28 01:06:09;;;;;;;5.15;1.38;;;15.30;99.90;;;;;;4975333;28;20093;-74
2023/10/28 01:08:35;;;;;;;5.40;1.90;;;15.30;99.90;;;;;;4975258;28;20029;-74
2023/10/28 01:11:02;;;;;;;3.53;1.48;;;15.20;99.90;;;;;;4975022;28;20037;-74
2023/10/28 01:13:28;;;;;;;5.15;1.90;;;15.30;99.90;;;;;;4975205;28;20535;-74
2023/10/28 01:15:54;;;;;;;2.80;1.45;;;15.30;99.90;;;;;;4990187;28;20384;-74
2023/10/28 01:18:20;;;;;;;4.10;1.48;;;15.30;99.90;;;;;;4975064;28;20019;-75
2023/10/28 01:20:46;;;;;;;5.22;1.75;;;15.20;99.90;;;;;;4974943;28;20039;-75
2023/10/28 01:23:11;;;;;;;11.00;1.70;;;15.20;99.90;;;;;;4975108;28;20022;-75
2023/10/28 01:25:37;;;;;;;3.15;1.50;;;15.20;99.90;;;;;;4974731;28;20357;-75
2023/10/28 01:28:03;;;;;;;3.70;1.60;;;15.30;99.90;;;;;;4974938;28;20364;-75
2023/10/28 01:30:28;;;;;;;3.63;1.10;;;15.20;99.90;;;;;;4974926;28;20027;-75
2023/10/28 01:32:54;;;;;;;4.43;1.67;;;15.20;99.90;;;;;;4974663;28;20034;-75
2023/10/28 01:35:20;;;;;;;2.47;1.20;;;15.20;99.90;;;;;;4989804;28;20038;-75
2023/10/28 01:37:45;;;;;;;4.07;1.45;;;15.20;99.90;;;;;;4974925;28;20027;-75
2023/10/28 01:40:14;;;;;;;3.53;1.50;;;15.20;99.90;;;;;;4974333;28;20042;-75
2023/10/28 01:42:41;;;;;;;5.60;1.05;;;15.20;99.90;;;;;;4974968;28;20022;-75
2023/10/28 01:45:10;;;;;;;4.82;2.03;;;15.20;99.90;;;;;;4974629;28;20122;-75
2023/10/28 01:47:37;;;;;;;5.32;1.70;;;15.20;99.90;;;;;;4974718;28;20428;-75
2023/10/28 01:50:05;;;;;;;3.28;1.50;;;15.20;99.90;;;;;;4974589;28;20048;-75
2023/10/28 01:52:30;;;;;;;2.90;1.30;;;15.20;99.90;;;;;;4974960;28;20106;-75
2023/10/28 01:54:56;;;;;;;6.68;1.60;;;15.20;99.90;;;;;;4974268;28;20061;-75
2023/10/28 01:57:21;;;;;;;4.57;1.77;;;15.20;99.90;;;;;;4974602;28;20447;-75
2023/10/28 01:59:47;;;;;;;4.00;1.70;;;15.20;99.90;;;;;;4974554;28;20042;-75
2023/10/28 02:02:12;;;;;;;4.25;1.70;;;15.20;99.90;;;;;;4974641;28;20118;-75
2023/10/28 02:04:38;;;;;;;3.42;1.20;;;15.20;99.90;;;;;;4974253;28;20035;-75
2023/10/28 02:07:06;;;;;;;5.38;1.55;;;15.20;99.90;;;;;;4974311;28;20063;-74
2023/10/28 02:09:33;;;;;;;6.43;2.10;;;15.20;99.90;;;;;;4974009;28;20050;-75
2023/10/28 02:12:02;;;;;;;5.35;1.65;;;15.10;99.90;;;;;;4974468;28;20054;-75
2023/10/28 02:14:28;;;;;;;4.28;1.73;;;15.20;99.90;;;;;;4974408;28;20411;-75
2023/10/28 02:16:55;;;;;;;4.25;1.55;;;15.10;99.90;;;;;;4974314;28;20019;-75
2023/10/28 02:19:21;;;;;;;4.82;2.05;;;15.10;99.90;;;;;;4974260;28;20039;-75
2023/10/28 02:21:47;;;;;;;6.75;2.03;;;15.10;99.90;;;;;;4989240;28;20026;-74
2023/10/28 02:24:12;;;;;;;4.60;1.50;;;15.10;99.90;;;;;;4974185;28;20027;-75
2023/10/28 02:26:38;;;;;;;5.53;1.42;;;15.10;99.90;;;;;;4974341;28;20435;-75
2023/10/28 02:29:04;;;;;;;4.75;2.28;;;15.10;99.90;;;;;;4974029;28;20098;-74
2023/10/28 02:31:29;;;;;;;7.95;2.20;;;15.10;99.90;;;;;;4974152;28;20078;-75
2023/10/28 02:33:55;;;;;;;5.05;1.85;;;15.20;99.90;;;;;;4974180;28;20542;-74
2023/10/28 02:36:21;;;;;;;7.63;1.88;;;15.10;99.90;;;;;;4974096;28;20038;-75
2023/10/28 02:38:46;;;;;;;3.35;1.42;;;15.10;99.90;;;;;;4973876;28;20045;-74
2023/10/28 02:41:13;;;;;;;3.42;1.38;;;15.10;99.90;;;;;;4974017;28;20035;-74
2023/10/28 02:43:39;;;;;;;5.93;1.77;;;15.10;99.90;;;;;;4974201;28;20035;-74
2023/10/28 02:46:06;;;;;;;6.80;2.20;;;15.20;99.90;;;;;;4974015;28;20436;-74
2023/10/28 02:48:32;;;;;;;6.85;2.35;;;15.20;99.90;;;;;;4974182;28;20089;-74
2023/10/28 02:51:05;;;;;;;4.80;1.58;;;15.20;99.90;;;;;;4973907;28;20480;-74
2023/10/28 02:53:31;;;;;;;5.82;2.15;;;15.20;99.90;;;;;;4973845;28;20055;-74
2023/10/28 02:55:57;;;;;;;6.20;2.30;;;15.20;99.90;;;;;;4974045;28;20459;-74
2023/10/28 02:58:23;;;;;;;6.63;1.92;;;15.10;99.90;;;;;;4974033;28;20496;-74
2023/10/28 03:00:48;;;;;;;4.75;1.75;;;15.10;99.90;;;;;;4973731;28;20492;-74
2023/10/28 03:03:14;;;;;;;5.25;1.95;;;15.10;99.90;;;;;;4974128;28;20467;-74
2023/10/28 03:05:39;;;;;;;5.88;1.70;;;15.10;99.90;;;;;;4973870;28;20534;-74
2023/10/28 03:08:06;;;;;;;6.75;1.50;;;15.20;99.90;;;;;;4973726;28;20045;-74
2023/10/28 03:10:32;;;;;;;6.10;1.83;;;15.10;99.90;;;;;;4974004;28;20023;-75
2023/10/28 03:12:57;;;;;;;10.05;1.67;;;15.10;99.90;;;;;;4973765;28;20027;-74
2023/10/28 03:15:24;;;;;;;5.65;2.03;;;15.10;99.90;;;;;;4973817;28;20054;-74
2023/10/28 03:17:50;;;;;;;6.32;1.83;;;15.10;99.90;;;;;;4973857;28;20022;-74
2023/10/28 03:20:19;;;;;;;4.40;1.55;;;15.10;99.90;;;;;;4976641;28;20045;-75
2023/10/28 03:22:44;;;;;;;6.50;1.80;;;15.10;99.90;;;;;;4977050;28;20375;-74
2023/10/28 03:25:10;;;;;;;7.78;2.42;;;15.10;99.90;;;;;;4977221;28;20472;-74
2023/10/28 03:27:36;;;;;;;4.25;1.50;;;15.20;99.90;;;;;;4976990;28;20102;-74
2023/10/28 03:30:01;;;;;;;8.75;1.70;;;15.10;99.90;;;;;;4977279;28;20416;-74
2023/10/28 03:32:27;;;;;;;6.80;2.05;;;15.10;99.90;;;;;;4976717;28;20472;-74
2023/10/28 03:34:53;;;;;;;7.55;2.17;;;15.10;99.90;;;;;;4976999;28;20035;-74
2023/10/28 03:37:18;;;;;;;6.00;2.05;;;15.10;99.90;;;;;;4955687;28;20047;-74
2023/10/28 03:39:44;;;;;;;5.70;2.22;;;15.20;99.90;;;;;;4957339;28;20039;-74
2023/10/28 03:42:11;;;;;;;7.97;2.47;;;15.10;99.90;;;;;;4956132;28;20247;-74
2023/10/28 03:44:37;;;;;;;6.03;2.15;;;15.10;99.90;;;;;;4955355;28;20031;-74
2023/10/28 03:47:04;;;;;;;4.97;2.05;;;15.10;99.90;;;;;;4957482;28;20034;-74
2023/10/28 03:49:30;;;;;;;7.45;2.20;;;15.10;99.90;;;;;;4957137;28;20019;-74
2023/10/28 03:51:56;;;;;;;7.47;2.35;;;15.10;99.90;;;;;;4957175;28;20047;-74
2023/10/28 03:54:21;;;;;;;7.28;2.40;;;15.10;99.90;;;;;;4957325;28;20090;-74
2023/10/28 03:56:47;;;;;;;7.18;2.10;;;15.10;99.90;;;;;;4957275;28;20023;-73
2023/10/28 03:59:13;;;;;;;8.18;2.42;;;15.10;99.90;;;;;;4957102;28;20505;-74
2023/10/28 04:01:40;;;;;;;8.75;2.28;;;15.10;99.90;;;;;;4957274;28;20110;-74
2023/10/28 04:04:06;;;;;;;10.43;1.90;;;15.10;99.90;;;;;;4955666;28;20090;-74
2023/10/28 04:06:32;;;;;;;9.65;2.40;;;15.10;99.90;;;;;;4957189;28;20036;-74
2023/10/28 04:08:58;;;;;;;7.78;2.45;;;15.10;99.90;;;;;;4956999;28;20098;-74
2023/10/28 04:11:24;;;;;;;9.50;3.00;;;15.10;99.90;;;;;;4957087;28;20030;-74
2023/10/28 04:13:50;;;;;;;6.88;2.25;;;15.10;99.90;;;;;;4956990;28;20376;-74
2023/10/28 04:16:15;;;;;;;10.18;2.72;;;15.10;99.90;;;;;;4957048;28;20023;-74
2023/10/28 04:18:41;;;;;;;6.75;2.33;;;15.10;99.90;;;;;;4956559;28;20028;-74
2023/10/28 04:21:07;;;;;;;5.78;2.20;;;15.10;99.90;;;;;;4956895;28;20062;-74
2023/10/28 04:23:32;;;;;;;6.57;2.63;;;15.10;99.90;;;;;;4956611;28;20027;-74
2023/10/28 04:25:58;;;;;;;9.00;2.50;;;15.10;99.90;;;;;;4957027;28;20034;-74
2023/10/28 04:28:23;;;;;;;7.93;2.53;;;15.10;99.90;;;;;;4956574;28;20019;-74
2023/10/28 04:30:59;;;;;;;8.15;2.75;;;15.10;99.90;;;;;;4956701;28;20474;-74
2023/10/28 04:33:25;;;;;;;7.95;2.60;;;15.10;99.90;;;;;;4956157;28;20039;-74
2023/10/28 04:35:54;;;;;;;8.95;3.05;;;15.10;99.90;;;;;;4957107;28;20071;-74
2023/10/28 04:38:20;;;;;;;10.07;2.88;;;15.20;99.90;;;;;;4956568;28;20033;-74
2023/10/28 04:40:46;;;;;;;6.25;2.58;;;15.10;99.90;;;;;;4956527;28;20399;-74
2023/10/28 04:43:12;;;;;;;9.50;2.47;;;15.20;99.90;;;;;;4956493;28;20528;-74
2023/10/28 04:45:44;;;;;;;6.85;2.35;;;15.10;99.90;;;;;;4956457;28;20035;-74
2023/10/28 04:48:13;;;;;;;6.63;2.13;;;15.10;99.90;;;;;;4955995;28;20031;-74
2023/10/28 04:50:40;;;;;;;8.40;2.10;;;15.10;99.90;;;;;;4956349;28;20407;-74
2023/10/28 04:53:05;;;;;;;7.45;2.22;;;15.10;99.90;;;;;;4956112;28;20453;-74
2023/10/28 04:55:31;;;;;;;7.63;1.90;;;15.10;99.90;;;;;;4956222;28;20074;-74
2023/10/28 04:57:56;;;;;;;9.57;2.67;;;15.20;99.90;;;;;;4956193;28;20038;-74
2023/10/28 05:00:22;;;;;;;13.07;2.50;;;15.10;99.90;;;;;;4955849;28;20043;-74
2023/10/28 05:02:48;;;;;;;8.80;3.20;;;15.10;99.90;;;;;;4955933;29;20028;-73
2023/10/28 05:05:14;;;;;;;11.98;3.03;;;15.10;99.90;;;;;;4955813;29;20480;-74
2023/10/28 05:07:40;;;;;;;6.50;2.88;;;15.10;99.90;;;;;;4954934;29;20027;-74
2023/10/28 05:10:06;;;;;;;6.50;2.80;;;15.10;99.90;;;;;;4955630;29;20031;-74
2023/10/28 05:12:32;;;;;;;6.25;2.33;;;15.10;99.90;;;;;;4956161;28;20027;-74
2023/10/28 05:14:59;;;;;;;9.38;2.50;;;15.20;99.90;;;;;;4955990;29;20027;-74
2023/10/28 05:17:27;;;;;;;7.93;2.17;;;15.20;99.90;;;;;;4955404;29;20495;-74
2023/10/28 05:19:53;;;;;;;9.98;2.60;;;15.20;99.90;;;;;;4955732;29;20031;-74
2023/10/28 05:22:19;;;;;;;8.57;2.50;;;15.20;99.90;;;;;;4955896;29;20094;-74
2023/10/28 05:24:45;;;;;;;6.40;1.83;;;15.20;99.90;;;;;;4956058;29;20038;-74
2023/10/28 05:27:10;;;;;;;6.65;2.17;;;15.20;99.90;;;;;;4955687;29;20026;-74
2023/10/28 05:29:36;;;;;;;6.97;1.90;;;15.20;99.90;;;;;;4955627;29;20027;-74
2023/10/28 05:32:02;;;;;;;8.40;2.33;;;15.20;99.90;;;;;;4955251;29;20043;-74
2023/10/28 05:34:27;;;;;;;11.05;2.38;;;15.20;99.90;;;;;;4955500;29;20036;-74
2023/10/28 05:36:53;;;;;;;9.80;2.33;;;15.20;99.90;;;;;;4955670;29;20035;-74
2023/10/28 05:39:20;;;;;;;9.05;2.08;;;15.20;99.90;;;;;;4955331;29;20090;-74
2023/10/28 05:41:47;;;;;;;7.57;1.80;;;15.20;99.90;;;;;;4955318;28;20023;-74
2023/10/28 05:44:13;;;;;;;9.30;2.40;;;15.20;99.90;;;;;;4955432;29;20031;-74
2023/10/28 05:46:38;;;;;;;11.98;1.85;;;15.20;99.90;;;;;;4955073;29;20406;-74
2023/10/28 05:49:04;;;;;;;11.60;2.85;;;15.20;99.90;;;;;;4955226;29;20023;-74
2023/10/28 05:51:35;;;;;;;9.77;2.67;;;15.20;99.90;;;;;;4955398;29;20385;-74
2023/10/28 05:54:01;;;;;;;7.67;1.60;;;15.20;99.90;;;;;;4955493;29;20078;-74
2023/10/28 05:56:27;;;;;;;4.82;1.42;;;15.20;99.90;;;;;;4955346;29;20023;-74
2023/10/28 05:58:54;;;;;;;5.72;1.48;;;15.20;99.90;;;;;;4955232;29;20019;-74
2023/10/28 06:01:20;;;;;;;12.02;2.10;;;15.30;99.90;;;;;;4954695;29;20031;-74
2023/10/28 06:03:46;;;;;;;8.07;2.10;;;15.30;99.90;;;;;;4955246;29;20032;-74
2023/10/28 06:06:11;;;;;;;8.00;2.20;;;15.30;99.90;;;;;;4955071;29;20042;-75
2023/10/28 06:08:38;;;;;;;9.25;2.65;;;15.20;99.90;;;;;;4953823;29;20020;-74
2023/10/28 06:11:04;;;;;;;9.27;2.13;;;15.20;99.90;;;;;;4954940;29;20532;-74
2023/10/28 06:13:29;;;;;;;8.73;1.75;;;15.20;99.90;;;;;;4955107;28;20114;-74
2023/10/28 06:15:55;;;;;;;8.43;1.65;;;15.30;99.90;;;;;;4954921;29;20096;-74
2023/10/28 06:18:21;;;;;;;8.48;1.70;;;15.20;99.90;;;;;;4953888;29;20413;-74
2023/10/28 06:20:47;;;;;;;7.55;1.40;;;15.30;99.90;;;;;;4954858;29;20559;-74
2023/10/28 06:23:15;;;;;;;8.73;1.63;;;15.30;99.90;;;;;;4955399;29;20023;-74
2023/10/28 06:25:40;;;;;;;5.60;2.20;;;15.30;99.90;;;;;;4953722;29;20110;-74
2023/10/28 06:28:06;;;;;;;10.20;2.55;;;15.30;99.90;;;;;;4968768;28;20102;-74
2023/10/28 06:30:33;;;;;;;9.38;2.20;;;15.30;99.90;;;;;;4953372;28;20070;-73
2023/10/28 06:32:59;;;;;;;10.85;2.35;;;15.30;99.90;;;;;;4951240;29;20038;-74
2023/10/28 06:35:25;;;;;;;7.28;2.00;;;15.30;99.90;;;;;;4951920;28;20031;-74
2023/10/28 06:37:51;;;;;;;9.07;1.90;;;15.30;99.90;;;;;;4954567;28;20543;-74
2023/10/28 06:40:16;;;;;;;10.80;2.28;;;15.30;99.90;;;;;;4954024;29;20027;-74
2023/10/28 06:42:43;;;;;;;9.70;2.65;;;15.30;99.90;;;;;;4953312;28;20030;-74
2023/10/28 06:45:09;;;;;;;6.20;1.88;;;15.30;99.90;;;;;;4954489;28;20114;-74
2023/10/28 06:47:35;;;;;;;9.52;1.95;;;15.30;99.90;;;;;;4961391;28;20063;-74
2023/10/28 06:50:07;;;;;;;5.18;2.05;;;15.30;99.90;;;;;;4951572;28;20055;-73
2023/10/28 06:52:33;;;;;;;10.48;1.92;;;15.30;99.90;;;;;;4953904;28;20011;-74
2023/10/28 06:55:02;;;;;;;6.85;1.35;;;15.30;99.90;;;;;;4957063;28;21218;-74
2023/10/28 06:57:30;;;;;;;10.38;2.47;;;15.30;99.90;;;;;;4956159;28;20110;-73
2023/10/28 06:59:57;;;;;;;9.80;1.45;;;15.30;99.90;;;;;;4955117;28;20042;-74
2023/10/28 07:02:23;;;;;;;5.40;1.58;;;15.20;99.90;;;;;;4957408;28;20027;-74
2023/10/28 07:04:50;;;;;;;11.57;2.28;;;15.20;99.90;;;;;;4955225;29;20073;-73
2023/10/28 07:07:16;;;;;;;8.90;1.65;;;15.30;99.90;;;;;;4957077;28;20019;-74
2023/10/28 07:09:42;;;;;;;9.30;1.98;;;15.30;99.90;;;;;;4955916;28;20028;-73
2023/10/28 07:12:08;;;;;;;11.15;1.70;;;15.30;99.90;;;;;;4956477;28;20034;-73
2023/10/28 07:14:34;;;;;;;8.30;1.73;;;15.30;99.90;;;;;;4974426;28;20437;-73
2023/10/28 07:17:01;;;;;;;9.02;2.25;;;15.30;99.90;;;;;;4958285;28;20510;-74
2023/10/28 07:19:28;;;;;;;7.55;1.92;;;15.30;99.90;;;;;;4955619;28;20055;-68
2023/10/28 07:21:53;;;;;;;10.38;2.03;;;15.40;99.90;;;;;;4954826;28;20023;-67
2023/10/28 07:24:20;;;;;;;7.63;1.23;;;15.50;99.90;;;;;;4957340;28;20031;-67
2023/10/28 07:26:47;;;;;;;5.68;1.15;;;15.60;99.90;;;;;;4957599;28;20098;-68
2023/10/28 07:29:12;;;;;;;7.05;1.52;;;15.70;99.90;;;;;;4956566;28;20027;-70
2023/10/28 07:31:38;;;;;;;9.90;2.05;;;15.70;99.90;;;;;;4961898;28;20026;-68
2023/10/28 07:34:07;;;;;;;5.03;1.20;;;15.80;99.90;;;;;;4953151;28;20039;-68
2023/10/28 07:36:34;;;;;;;8.57;1.70;;;15.90;99.90;;;;;;4956664;28;20525;-69
2023/10/28 07:39:01;;;;;;;8.75;1.73;;;15.90;99.90;;;;;;4954550;28;20038;-68
2023/10/28 07:41:28;;;;;;;11.25;2.40;;;15.90;99.90;;;;;;4955439;28;20443;-73
2023/10/28 07:43:53;;;;;;;7.28;1.60;;;16.00;99.90;;;;;;4953779;28;20183;-72
2023/10/28 07:46:19;;;;;;;9.52;1.92;;;16.20;99.90;;;;;;4970438;28;20152;-72
2023/10/28 07:48:45;;;;;;;9.40;2.22;;;16.20;99.90;;;;;;4970249;28;20033;-74
2023/10/28 07:51:13;;;;;;;10.63;1.60;;;16.20;99.90;;;;;;4953687;28;20043;-72
2023/10/28 07:53:39;;;;;;;17.15;2.35;;;16.20;99.90;;;;;;4947521;28;20047;-72
2023/10/28 07:56:05;;;;;;;8.02;1.52;;;16.30;99.90;;;;;;4947426;29;20063;-73
2023/10/28 07:58:31;;;;;;;13.63;1.90;;;16.30;99.90;;;;;;4952672;28;20028;-70
2023/10/28 08:00:57;;;;;;;10.70;2.45;;;16.20;99.90;;;;;;4952986;28;20043;-69
2023/10/28 08:03:23;;;;;;;10.48;1.55;;;16.30;99.90;;;;;;4944482;29;20062;-70
2023/10/28 08:05:48;;;;;;;6.32;1.80;;;16.30;99.90;;;;;;4953644;28;20070;-72
2023/10/28 08:08:14;;;;;;;8.60;1.65;;;16.30;99.90;;;;;;4954803;28;20479;-69
2023/10/28 08:10:40;;;;;;;8.82;2.08;;;16.20;99.90;;;;;;4954598;28;20028;-73
2023/10/28 08:13:06;;;;;;;11.77;2.15;;;16.30;99.90;;;;;;4954377;28;20481;-73
2023/10/28 08:15:32;;;;;;;10.98;1.85;;;16.30;99.90;;;;;;4953197;28;20030;-70
2023/10/28 08:17:58;;;;;;;7.57;1.95;;;16.40;99.90;;;;;;4955379;28;20062;-73
2023/10/28 08:20:23;;;;;;;12.40;2.10;;;16.40;99.90;;;;;;4956400;28;20074;-73
2023/10/28 08:22:49;;;;;;;6.60;1.70;;;16.50;99.90;;;;;;4954538;28;20030;-74
2023/10/28 08:25:18;;;;;;;9.05;1.65;;;16.50;99.90;;;;;;4951224;28;20037;-75
2023/10/28 08:27:44;;;;;;;8.50;1.45;;;16.50;99.90;;;;;;4953707;28;20480;-74
2023/10/28 08:30:17;;;;;;;7.13;1.50;;;16.40;99.90;;;;;;4954149;28;20362;-73
2023/10/28 08:32:43;;;;;;;5.80;1.40;;;16.40;99.90;;;;;;4953834;28;20078;-72
2023/10/28 08:35:09;;;;;;;6.50;1.50;;;16.40;99.90;;;;;;4954533;28;20046;-71
2023/10/28 08:37:35;;;;;;;8.52;1.52;;;16.40;99.90;;;;;;4953728;28;20098;-74
2023/10/28 08:40:06;;;;;;;6.05;1.50;;;16.30;99.90;;;;;;4953646;28;20039;-70
2023/10/28 08:42:34;;;;;;;6.13;1.38;;;16.40;99.90;;;;;;4967158;28;20464;-72
2023/10/28 08:45:03;;;;;;;4.55;1.55;;;16.40;99.90;;;;;;4953979;28;20024;-75
2023/10/28 08:47:31;;;;;;;5.38;1.02;;;16.40;99.90;;;;;;4969934;28;20031;-74
2023/10/28 08:50:00;;;;;;;5.50;1.25;;;16.40;99.90;;;;;;4948306;29;20046;-73
2023/10/28 08:52:28;;;;;;;6.50;1.63;;;16.40;99.90;;;;;;4959738;28;20028;-72
2023/10/28 08:54:57;;;;;;;4.75;1.30;;;16.40;99.90;;;;;;4964115;28;20028;-76
2023/10/28 08:57:23;;;;;;;7.13;1.27;;;16.40;99.90;;;;;;4950550;28;20034;-70
2023/10/28 08:59:50;;;;;;;8.68;1.70;;;16.40;99.90;;;;;;4949518;28;20043;-75
2023/10/28 09:02:19;;;;;;;7.75;1.60;;;16.40;99.90;;;;;;4949600;28;20495;-72
2023/10/28 09:04:45;;;;;;;6.80;1.33;;;16.50;99.90;;;;;;4948285;28;20039;-73
2023/10/28 09:07:11;;;;;;;6.40;1.30;;;16.50;99.90;;;;;;4952004;28;20552;-73
2023/10/28 09:09:39;;;;;;;7.18;1.27;;;16.50;99.90;;;;;;4949333;28;20046;-73
2023/10/28 09:12:08;;;;;;;7.90;1.30;;;16.50;99.90;;;;;;4961915;28;20027;-73
2023/10/28 09:14:34;;;;;;;8.43;1.83;;;16.50;99.90;;;;;;4950866;29;20029;-75
2023/10/28 09:17:02;;;;;;;9.48;1.67;;;16.40;99.90;;;;;;4949645;28;20397;-74
2023/10/28 09:19:29;;;;;;;9.82;2.00;;;16.40;99.90;;;;;;4951105;28;20031;-71
2023/10/28 09:21:55;;;;;;;6.05;1.15;;;16.40;99.90;;;;;;4951354;28;20027;-73
2023/10/28 09:24:22;;;;;;;6.32;1.20;;;16.50;99.90;;;;;;4954444;28;20610;-72
2023/10/28 09:26:52;;;;;;;9.18;1.60;;;16.50;99.90;;;;;;4953754;28;20043;-72
2023/10/28 09:29:30;;;;;;;7.57;1.45;;;16.50;99.90;;;;;;4969300;28;20489;-71
2023/10/28 09:32:06;;;;;;;6.85;1.42;;;16.50;99.90;;;;;;4954853;28;20042;-73
2023/10/28 09:34:39;;;;;;;5.68;1.55;;;16.50;99.90;;;;;;4955097;28;20046;-71
2023/10/28 09:37:06;;;;;;;11.75;1.83;;;16.50;99.90;;;;;;4955742;28;20038;-72
2023/10/28 09:39:36;;;;;;;6.63;1.60;;;16.50;99.90;;;;;;4955167;28;20036;-74
2023/10/28 09:42:03;;;;;;;9.07;1.90;;;16.50;99.90;;;;;;4953998;28;20029;-72
2023/10/28 09:44:29;;;;;;;9.80;1.58;;;16.50;99.90;;;;;;4951946;28;20027;-72
2023/10/28 09:47:00;;;;;;;5.72;1.85;;;16.50;99.90;;;;;;4952483;28;20055;-74
2023/10/28 09:49:29;;;;;;;7.87;1.90;;;16.50;99.90;;;;;;4953212;28;20031;-73
2023/10/28 09:51:59;;;;;;;7.13;2.05;;;16.50;99.90;;;;;;4954572;28;20035;-71
2023/10/28 09:54:32;;;;;;;7.18;1.48;;;16.50;99.90;;;;;;4954485;28;20019;-72
2023/10/28 09:57:00;;;;;;;7.50;1.50;;;16.50;99.90;;;;;;4954214;28;20538;-74
2023/10/28 09:59:27;;;;;;;5.00;1.23;;;16.60;99.90;;;;;;4953979;29;20118;-72
2023/10/28 10:02:01;;;;;;;7.13;2.20;;;16.70;99.90;;;;;;4954935;29;20024;-72
2023/10/28 10:04:43;;;;;;;8.15;1.80;;;16.70;99.90;;;;;;4954124;29;20023;-72
2023/10/28 10:07:09;;;;;;;10.25;1.80;;;16.70;99.90;;;;;;4953494;28;20058;-74
2023/10/28 10:09:48;;;;;;;8.07;1.80;;;16.70;99.90;;;;;;4953018;29;20027;-72
2023/10/28 10:12:14;;;;;;;7.72;1.80;;;16.80;99.90;;;;;;4954372;28;20035;-72
2023/10/28 10:14:50;;;;;;;7.57;1.90;;;16.80;99.90;;;;;;4953963;28;20026;-72
2023/10/28 10:17:44;;;;;;;9.55;2.35;;;16.80;99.90;;;;;;4953334;28;20086;-73
2023/10/28 10:20:10;;;;;;;10.95;2.60;;;16.80;99.90;;;;;;4954305;29;20043;-74
2023/10/28 10:22:38;;;;;;;7.50;1.73;;;16.80;99.90;;;;;;4954062;28;20031;-73
2023/10/28 10:25:04;;;;;;;9.40;2.20;;;16.90;99.90;;;;;;4951492;28;20027;-73
2023/10/28 10:27:44;;;;;;;7.70;1.63;;;16.90;99.90;;;;;;4964866;28;20491;-72
2023/10/28 10:30:10;;;;;;;11.80;2.53;;;16.90;99.90;;;;;;4956476;28;20379;-71
2023/10/28 10:32:44;;;;;;;7.68;2.38;;;16.90;99.80;;;;;;4972724;28;20066;-71
2023/10/28 10:35:12;;;;;;;9.52;1.98;;;16.90;99.70;;;;;;4956498;28;20046;-70
2023/10/28 10:37:38;;;;;;;8.43;2.05;;;16.90;99.60;;;;;;4954610;28;20027;-72
2023/10/28 10:40:08;;;;;;;12.38;2.30;;;17.00;99.60;;;;;;4954895;28;20041;-73
2023/10/28 10:42:35;;;;;;;9.77;2.70;;;17.00;99.70;;;;;;4958041;29;20020;-74
2023/10/28 10:45:01;;;;;;;9.55;3.58;;;17.00;99.90;;;;;;4957456;28;20038;-74
2023/10/28 10:47:27;;;;;;;12.55;3.90;;;17.00;99.90;;;;;;4956321;28;20024;-72
2023/10/28 10:49:54;;;;;;;10.00;2.35;;;17.00;99.90;;;;;;4957929;29;20457;-73
2023/10/28 10:52:22;;;;;;;10.73;2.85;;;17.00;99.90;;;;;;4956655;29;20047;-74
2023/10/28 10:54:48;;;;;;;9.63;2.60;;;17.00;99.90;;;;;;4956437;28;20050;-72
2023/10/28 10:57:13;;;;;;;8.65;2.20;;;17.00;99.90;;;;;;4957416;28;20019;-75
2023/10/28 10:59:39;;;;;;;11.70;2.70;;;17.00;99.90;;;;;;4957973;28;20050;-74
2023/10/28 11:02:05;;;;;;;14.20;2.88;;;16.90;99.90;;;;;;4955888;29;20023;-73
2023/10/28 11:04:34;;;;;;;10.80;2.70;;;17.00;99.90;;;;;;4956946;29;20159;-76
2023/10/28 11:07:02;;;;;;;11.27;2.30;;;17.00;99.90;;;;;;4956397;29;20027;-75
2023/10/28 11:09:28;;;;;;;12.02;2.85;;;17.00;99.90;;;;;;4956081;29;20030;-73
2023/10/28 11:11:54;;;;;;;17.70;3.22;;;17.00;99.90;;;;;;4955871;28;20023;-75
2023/10/28 11:14:19;;;;;;;9.25;2.33;;;17.00;99.90;;;;;;4954866;28;20083;-75
2023/10/28 11:16:46;;;;;;;12.10;2.95;;;17.00;99.90;;;;;;4957372;29;20031;-70
2023/10/28 11:19:12;;;;;;;9.15;2.95;;;17.00;99.90;;;;;;4956307;29;20034;-73
2023/10/28 11:21:41;;;;;;;14.90;2.95;;;17.10;99.90;;;;;;4957889;29;20107;-76
2023/10/28 11:24:09;;;;;;;9.65;2.10;;;17.10;99.90;;;;;;4956870;29;20098;-76
2023/10/28 11:26:36;;;;;;;11.63;3.22;;;17.10;99.90;;;;;;4957651;29;20035;-78
2023/10/28 11:29:02;;;;;;;10.68;2.88;;;17.10;99.90;;;;;;4957740;29;20134;-75
2023/10/28 11:31:29;;;;;;;10.95;2.50;;;17.10;99.90;;;;;;4957481;29;20113;-76
2023/10/28 11:34:04;;;;;;;9.77;2.28;;;17.20;99.90;;;;;;4955150;29;20039;-76
2023/10/28 11:36:31;;;;;;;17.92;2.85;;;17.20;99.90;;;;;;4957847;28;20110;-76
2023/10/28 11:39:07;;;;;;;12.30;2.78;;;17.20;99.90;;;;;;4956990;28;20023;-76
2023/10/28 11:41:32;;;;;;;11.60;2.30;;;17.30;99.90;;;;;;4957127;28;20030;-73
2023/10/28 11:43:59;;;;;;;11.10;2.70;;;17.30;99.90;;;;;;4954918;28;20106;-75
2023/10/28 11:46:25;;;;;;;10.82;2.88;;;17.30;99.90;;;;;;4953631;29;20027;-74
2023/10/28 11:48:50;;;;;;;9.63;2.50;;;17.20;99.90;;;;;;4957287;28;20027;-77
2023/10/28 11:51:16;;;;;;;11.77;3.03;;;17.20;99.90;;;;;;4957551;28;20111;-73
2023/10/28 11:53:47;;;;;;;6.60;2.20;;;17.20;99.90;;;;;;4957376;28;20022;-75
2023/10/28 11:56:15;;;;;;;11.85;2.95;;;17.20;99.90;;;;;;4957260;28;20437;-74
2023/10/28 11:58:42;;;;;;;6.72;2.10;;;17.20;99.90;;;;;;4957331;28;20027;-73
2023/10/28 12:01:08;;;;;;;10.23;2.60;;;17.30;99.90;;;;;;4957222;29;20035;-73
2023/10/28 12:03:34;;;;;;;14.07;2.85;;;17.30;99.90;;;;;;4965099;28;20488;-73
2023/10/28 12:05:59;;;;;;;13.52;2.30;;;17.30;99.90;;;;;;4966920;28;20118;-71
2023/10/28 12:08:25;;;;;;;9.77;2.28;;;17.40;99.90;;;;;;4971606;28;20159;-75
2023/10/28 12:10:50;;;;;;;9.23;2.90;;;17.40;99.90;;;;;;4957239;28;20030;-73
2023/10/28 12:13:19;;;;;;;8.35;2.28;;;17.40;99.90;;;;;;4956951;28;20034;-74
2023/10/28 12:15:45;;;;;;;12.32;2.35;;;17.40;99.90;;;;;;4956926;28;20023;-75
2023/10/28 12:18:11;;;;;;;11.20;2.67;;;17.40;99.90;;;;;;4955642;28;20027;-73
2023/10/28 12:20:40;;;;;;;15.23;2.95;;;17.40;99.90;;;;;;4956478;28;20035;-75
2023/10/28 12:23:09;;;;;;;10.70;2.58;;;17.40;99.90;;;;;;4937613;29;20030;-73
2023/10/28 12:25:35;;;;;;;7.32;2.33;;;17.40;99.90;;;;;;4949916;29;20419;-73
2023/10/28 12:28:00;;;;;;;13.57;3.17;;;17.40;99.90;;;;;;4956447;28;20033;-75
2023/10/28 12:30:27;;;;;;;11.52;2.58;;;17.40;99.90;;;;;;4955805;28;20030;-73
2023/10/28 12:32:52;;;;;;;12.65;2.55;;;17.50;99.90;;;;;;4955859;28;20114;-73
2023/10/28 12:35:19;;;;;;;10.23;2.38;;;17.50;99.90;;;;;;4955433;28;20123;-72
2023/10/28 12:37:44;;;;;;;12.13;2.85;;;17.50;99.90;;;;;;4945833;29;20429;-72
2023/10/28 12:40:10;;;;;;;8.63;2.40;;;17.50;99.90;;;;;;4955993;28;20543;-71
2023/10/28 12:42:36;;;;;;;11.05;2.15;;;17.50;99.90;;;;;;4955927;28;20042;-72